Time;durP1;ratioP1;P1;durP2;ratioP2;P2;SDS_P1;SDS_P2;PMS_P1;PMS_P2;Temp;Humidity;BMP_temperature;BMP_pressure;BME280_temperature;BME280_humidity;BME280_pressure;Samples;Min_cycle;Max_cycle;Signal;HPM_P1;HPM_P2
2021/05/15 00:01:47;;;;;;;21.43;13.80;;;9.90;99.90;;;;;;4406593;32;20382;-65
2021/05/15 00:04:13;;;;;;;21.27;13.73;;;10.10;99.90;;;;;;4394709;32;20159;-65
2021/05/15 00:06:40;;;;;;;22.77;14.87;;;10.00;99.90;;;;;;4394832;32;20179;-64
2021/05/15 00:09:07;;;;;;;23.00;13.87;;;10.10;99.90;;;;;;4406487;32;20221;-65
2021/05/15 00:11:35;;;;;;;21.77;14.97;;;10.10;99.90;;;;;;4406420;32;20341;-65
2021/05/15 00:14:01;;;;;;;21.20;13.23;;;10.20;99.90;;;;;;4404503;32;20154;-64
2021/05/15 00:16:28;;;;;;;21.60;14.47;;;10.20;99.90;;;;;;4406351;32;20510;-66
2021/05/15 00:18:55;;;;;;;20.17;12.83;;;10.30;99.90;;;;;;4392000;32;20591;-64
2021/05/15 00:21:21;;;;;;;21.13;13.43;;;10.40;99.90;;;;;;4391513;32;20158;-64
2021/05/15 00:23:48;;;;;;;21.10;14.40;;;10.30;99.90;;;;;;4404280;32;20166;-64
2021/05/15 00:26:15;;;;;;;22.03;14.30;;;10.30;99.90;;;;;;4405857;32;20544;-64
2021/05/15 00:28:41;;;;;;;25.50;15.97;;;10.40;99.90;;;;;;4405853;32;20609;-64
2021/05/15 00:31:08;;;;;;;22.33;14.57;;;10.30;99.90;;;;;;4406303;32;20170;-64
2021/05/15 00:33:35;;;;;;;24.97;15.40;;;10.30;99.90;;;;;;4405468;32;20343;-64
2021/05/15 00:36:01;;;;;;;24.40;15.47;;;10.30;99.90;;;;;;4406173;32;20589;-65
2021/05/15 00:38:28;;;;;;;21.87;14.90;;;10.30;99.90;;;;;;4406735;32;20151;-64
2021/05/15 00:40:54;;;;;;;27.53;14.90;;;10.30;99.90;;;;;;4406615;32;20214;-64
2021/05/15 00:43:21;;;;;;;24.13;13.93;;;10.30;99.90;;;;;;4395837;32;20239;-63
2021/05/15 00:45:47;;;;;;;25.00;16.73;;;10.30;99.90;;;;;;4399068;32;20152;-63
2021/05/15 00:48:16;;;;;;;22.27;15.23;;;10.30;99.90;;;;;;4406555;32;20173;-64
2021/05/15 00:50:43;;;;;;;22.43;15.03;;;10.10;99.90;;;;;;4406099;32;20231;-64
2021/05/15 00:53:09;;;;;;;25.60;15.07;;;10.20;99.90;;;;;;4406955;32;20555;-63
2021/05/15 00:55:36;;;;;;;21.10;14.23;;;10.30;99.90;;;;;;4403977;32;20534;-64
2021/05/15 00:58:03;;;;;;;22.80;14.47;;;10.40;99.90;;;;;;4406110;32;20147;-64
2021/05/15 01:00:31;;;;;;;27.27;15.53;;;10.40;99.90;;;;;;4405624;32;20533;-64
2021/05/15 01:02:58;;;;;;;24.70;15.20;;;10.50;99.90;;;;;;4406817;32;20208;-63
2021/05/15 01:05:26;;;;;;;20.97;14.43;;;10.50;99.90;;;;;;4395735;32;20179;-64
2021/05/15 01:07:53;;;;;;;25.57;16.27;;;10.40;99.90;;;;;;4390797;32;20274;-63
2021/05/15 01:10:20;;;;;;;22.77;16.47;;;10.40;99.90;;;;;;4404484;32;20562;-63
2021/05/15 01:12:50;;;;;;;26.60;16.00;;;10.30;99.90;;;;;;4405825;32;20586;-63
2021/05/15 01:15:18;;;;;;;21.00;14.23;;;10.30;99.90;;;;;;4398793;32;20158;-65
2021/05/15 01:17:49;;;;;;;21.40;14.60;;;10.40;99.90;;;;;;4391201;32;20189;-63
2021/05/15 01:20:17;;;;;;;24.00;15.47;;;10.40;99.90;;;;;;4402319;32;20175;-63
2021/05/15 01:22:44;;;;;;;23.13;15.33;;;10.30;99.90;;;;;;4405506;32;20178;-64
2021/05/15 01:25:11;;;;;;;27.53;16.37;;;10.40;99.90;;;;;;4401469;32;20231;-64
2021/05/15 01:27:38;;;;;;;24.83;14.37;;;10.30;99.90;;;;;;4391799;32;20178;-66
2021/05/15 01:30:10;;;;;;;21.13;14.93;;;10.30;99.90;;;;;;4389995;32;20665;-64
2021/05/15 01:32:39;;;;;;;22.87;15.07;;;10.30;99.90;;;;;;4390965;32;20283;-62
2021/05/15 01:35:07;;;;;;;24.50;15.60;;;10.40;99.90;;;;;;4395990;32;20357;-64
2021/05/15 01:37:34;;;;;;;20.77;15.50;;;10.40;99.90;;;;;;4393346;32;20147;-63
2021/05/15 01:40:01;;;;;;;27.27;15.77;;;10.50;99.90;;;;;;4397421;32;20268;-64
2021/05/15 01:42:29;;;;;;;24.37;15.77;;;10.50;99.90;;;;;;4405500;32;20207;-64
2021/05/15 01:44:55;;;;;;;21.23;15.00;;;10.50;99.90;;;;;;4404038;32;20235;-64
2021/05/15 01:47:22;;;;;;;24.03;15.20;;;10.50;99.90;;;;;;4406716;32;20175;-64
2021/05/15 01:49:48;;;;;;;24.67;15.70;;;10.50;99.90;;;;;;4404664;32;20157;-64
2021/05/15 01:52:15;;;;;;;23.40;15.27;;;10.50;99.90;;;;;;4405381;32;20152;-64
2021/05/15 01:54:42;;;;;;;23.70;15.90;;;10.60;99.90;;;;;;4405012;32;20194;-64
2021/05/15 01:57:10;;;;;;;23.40;15.40;;;10.50;99.90;;;;;;4405060;32;20257;-64
2021/05/15 01:59:36;;;;;;;25.77;15.63;;;10.40;99.90;;;;;;4405361;32;20167;-63
2021/05/15 02:02:06;;;;;;;24.27;14.17;;;10.50;99.90;;;;;;4404945;32;20155;-64
2021/05/15 02:04:35;;;;;;;23.40;14.87;;;10.50;99.90;;;;;;4405608;32;20511;-65
2021/05/15 02:07:07;;;;;;;27.80;14.97;;;10.50;99.90;;;;;;4398284;32;20171;-64
2021/05/15 02:09:36;;;;;;;20.17;14.77;;;10.40;99.90;;;;;;4404276;32;20696;-64
2021/05/15 02:12:06;;;;;;;24.13;15.30;;;10.50;99.90;;;;;;4405662;32;20541;-64
2021/05/15 02:14:37;;;;;;;21.17;14.57;;;10.50;99.90;;;;;;4405844;32;20526;-64
2021/05/15 02:17:06;;;;;;;25.73;15.37;;;10.50;99.90;;;;;;4401788;32;20208;-64
2021/05/15 02:19:35;;;;;;;24.50;14.67;;;10.50;99.90;;;;;;4405037;32;20477;-64
2021/05/15 02:22:06;;;;;;;25.10;16.33;;;10.50;99.90;;;;;;4405361;32;20208;-65
2021/05/15 02:24:34;;;;;;;22.20;14.87;;;10.30;99.90;;;;;;4405020;32;20171;-65
2021/05/15 02:27:01;;;;;;;25.03;16.10;;;10.30;99.90;;;;;;4402443;32;20175;-65
2021/05/15 02:29:27;;;;;;;23.17;15.53;;;10.30;99.90;;;;;;4404436;32;20186;-65
2021/05/15 02:31:54;;;;;;;22.50;14.60;;;10.30;99.90;;;;;;4405163;32;20148;-65
2021/05/15 02:34:20;;;;;;;27.10;15.43;;;10.30;99.90;;;;;;4404844;32;20174;-64
2021/05/15 02:36:47;;;;;;;22.57;14.87;;;10.20;99.90;;;;;;4403656;32;20223;-65
2021/05/15 02:39:13;;;;;;;23.13;15.00;;;10.20;99.90;;;;;;4405189;32;20824;-64
2021/05/15 02:41:40;;;;;;;22.63;15.87;;;10.10;99.90;;;;;;4404711;32;20185;-64
2021/05/15 02:44:07;;;;;;;25.00;16.83;;;10.10;99.90;;;;;;4404855;32;20176;-64
2021/05/15 02:46:33;;;;;;;21.70;15.37;;;10.10;99.90;;;;;;4402537;32;20170;-65
2021/05/15 02:49:01;;;;;;;23.73;15.60;;;10.00;99.90;;;;;;4404640;32;20203;-63
2021/05/15 02:51:27;;;;;;;24.47;16.10;;;10.00;99.90;;;;;;4407263;32;20178;-64
2021/05/15 02:53:56;;;;;;;27.17;16.80;;;10.00;99.90;;;;;;4407672;32;20172;-63
2021/05/15 02:56:23;;;;;;;27.03;15.43;;;10.00;99.90;;;;;;4406682;32;20162;-64
2021/05/15 02:58:49;;;;;;;22.53;15.13;;;10.10;99.90;;;;;;4407305;32;20252;-64
2021/05/15 03:01:15;;;;;;;25.03;15.97;;;10.10;99.90;;;;;;4407576;32;20167;-64
2021/05/15 03:03:41;;;;;;;30.17;16.57;;;10.10;99.90;;;;;;4407186;32;20215;-64
2021/05/15 03:06:09;;;;;;;24.57;16.47;;;10.10;99.90;;;;;;4409276;32;20210;-64
2021/05/15 03:08:35;;;;;;;25.63;16.67;;;10.00;99.90;;;;;;4396284;32;20265;-64
2021/05/15 03:11:01;;;;;;;26.90;16.23;;;10.00;99.90;;;;;;4407099;32;20179;-64
2021/05/15 03:13:28;;;;;;;26.83;16.07;;;10.10;99.90;;;;;;4407245;32;20189;-64
2021/05/15 03:15:54;;;;;;;24.53;15.97;;;10.10;99.90;;;;;;4407376;32;20319;-65
2021/05/15 03:18:23;;;;;;;21.77;15.43;;;10.00;99.90;;;;;;4404953;32;20220;-66
2021/05/15 03:20:50;;;;;;;24.20;15.67;;;10.00;99.90;;;;;;4403603;32;20231;-64
2021/05/15 03:23:18;;;;;;;25.47;16.20;;;10.00;99.90;;;;;;4405134;32;20168;-64
2021/05/15 03:25:44;;;;;;;25.33;15.53;;;10.00;99.90;;;;;;4404245;32;20209;-65
2021/05/15 03:28:10;;;;;;;24.07;15.37;;;10.00;99.90;;;;;;4402033;32;20163;-64
2021/05/15 03:30:37;;;;;;;27.77;17.10;;;10.20;99.90;;;;;;4404616;32;20196;-63
2021/05/15 03:33:08;;;;;;;24.17;16.90;;;10.10;99.90;;;;;;4407094;32;20492;-64
2021/05/15 03:35:34;;;;;;;24.37;16.53;;;10.10;99.90;;;;;;4407126;32;20571;-63
2021/05/15 03:38:09;;;;;;;22.70;15.90;;;10.10;99.90;;;;;;4403891;32;20224;-64
2021/05/15 03:40:37;;;;;;;28.03;17.70;;;10.10;99.90;;;;;;4402589;32;20195;-64
2021/05/15 03:43:04;;;;;;;24.70;17.03;;;10.10;99.90;;;;;;4407196;32;20180;-64
2021/05/15 03:45:31;;;;;;;25.67;15.93;;;10.10;99.90;;;;;;4407326;32;20159;-64
2021/05/15 03:47:57;;;;;;;21.97;16.47;;;10.10;99.90;;;;;;4405732;32;20162;-64
2021/05/15 03:50:23;;;;;;;25.37;16.50;;;10.10;99.90;;;;;;4405497;32;20171;-64
2021/05/15 03:52:50;;;;;;;26.80;15.93;;;10.20;99.90;;;;;;4408395;32;20180;-62
2021/05/15 03:55:16;;;;;;;26.23;16.10;;;10.10;99.90;;;;;;4407622;32;20167;-64
2021/05/15 03:57:43;;;;;;;23.70;16.43;;;10.20;99.90;;;;;;4406937;32;20605;-65
2021/05/15 04:00:11;;;;;;;24.57;17.70;;;10.30;99.90;;;;;;4405551;32;20217;-64
2021/05/15 04:02:38;;;;;;;23.63;16.03;;;10.30;99.90;;;;;;4406698;32;20199;-63
2021/05/15 04:05:05;;;;;;;26.43;16.37;;;10.30;99.90;;;;;;4407330;32;20189;-63
2021/05/15 04:07:31;;;;;;;26.47;17.47;;;10.40;99.90;;;;;;4406959;32;20187;-65
2021/05/15 04:09:58;;;;;;;24.60;16.87;;;10.40;99.90;;;;;;4405756;32;20495;-64
2021/05/15 04:12:28;;;;;;;21.87;15.77;;;10.40;99.90;;;;;;4406861;32;20572;-65
2021/05/15 04:15:03;;;;;;;23.03;16.50;;;10.50;99.90;;;;;;4407586;32;20518;-65
2021/05/15 04:17:30;;;;;;;26.70;16.17;;;10.50;99.90;;;;;;4408063;32;20180;-66
2021/05/15 04:19:57;;;;;;;32.90;17.13;;;10.50;99.90;;;;;;4406259;32;20271;-63
2021/05/15 04:22:24;;;;;;;26.93;16.70;;;10.50;99.90;;;;;;4406690;32;20179;-63
2021/05/15 04:24:50;;;;;;;25.70;17.83;;;10.50;99.90;;;;;;4406335;32;20151;-64
2021/05/15 04:27:17;;;;;;;23.13;16.87;;;10.60;99.90;;;;;;4406919;32;20647;-63
2021/05/15 04:29:44;;;;;;;22.90;15.93;;;10.60;99.90;;;;;;4400119;32;20179;-64
2021/05/15 04:32:11;;;;;;;27.17;17.70;;;10.60;99.90;;;;;;4396718;32;20175;-63
2021/05/15 04:34:38;;;;;;;25.80;17.47;;;10.70;99.90;;;;;;4406503;32;20229;-66
2021/05/15 04:37:04;;;;;;;23.60;16.70;;;10.70;99.90;;;;;;4391408;32;20148;-66
2021/05/15 04:39:33;;;;;;;24.50;16.60;;;10.70;99.90;;;;;;4403064;32;20159;-63
2021/05/15 04:42:04;;;;;;;23.37;17.50;;;10.70;99.90;;;;;;4406538;32;20147;-63
2021/05/15 04:44:31;;;;;;;26.60;16.37;;;10.70;99.90;;;;;;4405526;32;20286;-65
2021/05/15 04:46:57;;;;;;;25.93;16.43;;;10.80;99.90;;;;;;4406159;32;20213;-64
2021/05/15 04:49:24;;;;;;;26.77;17.43;;;10.70;99.90;;;;;;4404747;32;20215;-66
2021/05/15 04:51:51;;;;;;;24.37;17.20;;;10.80;99.90;;;;;;4391253;32;20215;-62
2021/05/15 04:54:17;;;;;;;25.00;17.30;;;10.80;99.90;;;;;;4403527;32;20159;-64
2021/05/15 04:56:43;;;;;;;26.67;18.23;;;10.70;99.90;;;;;;4405482;32;20167;-63
2021/05/15 04:59:11;;;;;;;26.93;17.37;;;10.70;99.90;;;;;;4406184;32;20150;-64
2021/05/15 05:01:37;;;;;;;29.43;16.53;;;10.70;99.90;;;;;;4405259;32;20145;-63
2021/05/15 05:04:07;;;;;;;23.47;16.43;;;10.70;99.90;;;;;;4405795;32;20166;-64
2021/05/15 05:06:35;;;;;;;25.07;16.83;;;10.70;99.90;;;;;;4406094;32;20162;-64
2021/05/15 05:09:01;;;;;;;27.47;16.17;;;10.70;99.90;;;;;;4405700;32;20201;-65
2021/05/15 05:11:28;;;;;;;27.17;17.20;;;10.80;99.90;;;;;;4404458;32;20151;-65
2021/05/15 05:13:54;;;;;;;27.27;17.53;;;10.80;99.90;;;;;;4405842;32;20156;-67
2021/05/15 05:16:20;;;;;;;27.03;17.43;;;10.80;99.90;;;;;;4405166;32;20175;-64
2021/05/15 05:18:47;;;;;;;24.27;17.57;;;10.80;99.90;;;;;;4405853;32;20182;-64
2021/05/15 05:21:13;;;;;;;29.07;17.97;;;10.70;99.90;;;;;;4400239;32;20246;-65
2021/05/15 05:23:40;;;;;;;27.73;18.23;;;10.70;99.90;;;;;;4405622;32;20152;-65
2021/05/15 05:26:09;;;;;;;22.47;17.23;;;10.60;99.90;;;;;;4405583;32;20210;-66
2021/05/15 05:28:36;;;;;;;27.17;17.30;;;10.60;99.90;;;;;;4403814;32;20195;-64
2021/05/15 05:31:06;;;;;;;26.67;17.33;;;10.60;99.90;;;;;;4401098;32;20233;-65
2021/05/15 05:33:33;;;;;;;27.27;18.07;;;10.70;99.90;;;;;;4405182;32;20227;-64
2021/05/15 05:36:00;;;;;;;28.90;18.90;;;10.70;99.90;;;;;;4404867;32;20178;-62
2021/05/15 05:38:26;;;;;;;31.33;19.80;;;10.80;99.90;;;;;;4404656;32;20207;-64
2021/05/15 05:40:53;;;;;;;26.63;18.23;;;10.90;99.90;;;;;;4400053;32;20193;-63
2021/05/15 05:43:20;;;;;;;32.00;18.03;;;11.00;99.90;;;;;;4407251;32;20156;-64
2021/05/15 05:45:46;;;;;;;27.17;18.03;;;11.10;99.90;;;;;;4405077;32;20219;-65
2021/05/15 05:48:12;;;;;;;27.07;18.13;;;11.10;99.90;;;;;;4404665;32;20156;-64
2021/05/15 05:50:39;;;;;;;26.23;18.03;;;11.30;99.90;;;;;;4405298;32;20173;-62
2021/05/15 05:53:08;;;;;;;20.80;15.87;;;11.50;99.90;;;;;;4404621;32;20186;-64
2021/05/15 05:55:34;;;;;;;30.47;18.10;;;11.60;99.90;;;;;;4390348;32;20553;-65
2021/05/15 05:58:03;;;;;;;34.60;19.00;;;11.80;99.90;;;;;;4402717;32;20168;-63
2021/05/15 06:00:30;;;;;;;23.97;18.67;;;11.70;99.90;;;;;;4400915;32;20147;-65
2021/05/15 06:02:56;;;;;;;29.13;18.23;;;11.90;99.90;;;;;;4405050;32;20583;-66
2021/05/15 06:05:22;;;;;;;27.63;18.67;;;12.10;99.90;;;;;;4405391;32;20166;-64
2021/05/15 06:07:49;;;;;;;28.43;17.90;;;12.30;99.90;;;;;;4405350;32;20167;-64
2021/05/15 06:10:15;;;;;;;27.93;17.97;;;12.50;99.90;;;;;;4399465;32;20637;-66
2021/05/15 06:12:41;;;;;;;25.97;18.03;;;12.60;99.90;;;;;;4403306;32;20194;-65
2021/05/15 06:15:10;;;;;;;29.83;19.07;;;12.80;99.90;;;;;;4406241;32;20484;-64
2021/05/15 06:17:36;;;;;;;24.73;17.53;;;13.00;99.90;;;;;;4406403;32;20519;-63
2021/05/15 06:20:09;;;;;;;25.57;18.17;;;13.20;99.90;;;;;;4403299;32;20149;-65
2021/05/15 06:22:36;;;;;;;28.07;18.83;;;13.20;99.90;;;;;;4405538;32;20160;-64
2021/05/15 06:25:03;;;;;;;26.53;17.87;;;13.00;99.90;;;;;;4407123;32;20524;-65
2021/05/15 06:27:33;;;;;;;24.07;17.73;;;12.90;99.90;;;;;;4407569;32;20237;-62
2021/05/15 06:30:00;;;;;;;28.70;18.20;;;12.70;99.90;;;;;;4406985;32;20168;-64
2021/05/15 06:32:27;;;;;;;26.73;18.27;;;12.80;99.90;;;;;;4407500;32;20174;-66
2021/05/15 06:34:53;;;;;;;31.73;19.80;;;12.80;99.90;;;;;;4408051;32;20227;-65
2021/05/15 06:37:21;;;;;;;28.13;20.37;;;12.70;99.90;;;;;;4408016;32;20548;-65
2021/05/15 06:39:47;;;;;;;31.00;20.00;;;12.60;99.90;;;;;;4407653;32;20183;-67
2021/05/15 06:42:14;;;;;;;29.17;20.27;;;12.40;99.90;;;;;;4406327;32;20183;-64
2021/05/15 06:44:41;;;;;;;31.87;21.07;;;12.50;99.90;;;;;;4407124;32;20167;-65
2021/05/15 06:47:07;;;;;;;32.13;21.80;;;12.40;99.90;;;;;;4405967;32;20536;-65
2021/05/15 06:49:34;;;;;;;34.60;23.20;;;12.40;99.90;;;;;;4403150;32;21640;-63
2021/05/15 06:52:01;;;;;;;29.93;21.70;;;12.40;99.90;;;;;;4404634;32;20160;-65
2021/05/15 06:54:28;;;;;;;41.30;24.90;;;12.50;99.90;;;;;;4408178;32;20425;-65
2021/05/15 06:56:54;;;;;;;36.87;24.03;;;12.50;99.90;;;;;;4406003;32;20152;-63
2021/05/15 06:59:20;;;;;;;32.67;22.60;;;12.30;99.90;;;;;;4408558;32;20179;-66
2021/05/15 07:01:47;;;;;;;39.67;25.30;;;12.40;99.90;;;;;;4405801;32;20188;-64
2021/05/15 07:04:14;;;;;;;35.43;24.73;;;12.30;99.90;;;;;;4407271;32;20181;-63
2021/05/15 07:06:44;;;;;;;36.17;23.70;;;12.40;99.90;;;;;;4407724;32;20187;-63
2021/05/15 07:09:13;;;;;;;38.63;25.10;;;12.50;99.90;;;;;;4406855;32;20190;-64
2021/05/15 07:11:40;;;;;;;36.30;25.33;;;12.60;99.90;;;;;;4404609;32;20172;-65
2021/05/15 07:14:09;;;;;;;34.70;23.80;;;12.60;99.90;;;;;;4406693;32;20556;-66
2021/05/15 07:16:36;;;;;;;30.60;22.13;;;12.60;99.80;;;;;;4407321;32;20191;-63
2021/05/15 07:19:03;;;;;;;29.47;22.00;;;12.50;98.80;;;;;;4404947;32;20207;-63
2021/05/15 07:21:31;;;;;;;29.37;22.20;;;12.70;99.00;;;;;;4406193;32;20178;-64
2021/05/15 07:23:59;;;;;;;36.37;24.20;;;12.70;98.90;;;;;;4406712;32;20659;-64
2021/05/15 07:26:25;;;;;;;32.83;22.93;;;12.70;98.70;;;;;;4393911;32;20257;-64
2021/05/15 07:28:51;;;;;;;31.90;22.17;;;12.60;98.90;;;;;;4391536;32;20164;-63
2021/05/15 07:31:18;;;;;;;33.10;23.53;;;12.50;99.40;;;;;;4390549;32;20490;-64
2021/05/15 07:33:44;;;;;;;37.13;23.00;;;12.50;99.50;;;;;;4390936;32;20591;-65
2021/05/15 07:36:17;;;;;;;33.47;22.57;;;12.60;99.40;;;;;;4390876;32;20179;-66
2021/05/15 07:38:43;;;;;;;30.43;21.53;;;12.70;99.40;;;;;;4393172;32;20171;-63
2021/05/15 07:41:11;;;;;;;33.43;22.90;;;12.70;99.20;;;;;;4390883;32;20661;-64
2021/05/15 07:43:37;;;;;;;33.57;22.87;;;13.10;99.00;;;;;;4388789;32;20167;-64
2021/05/15 07:46:06;;;;;;;33.67;22.37;;;13.30;98.20;;;;;;4392002;32;20220;-63
2021/05/15 07:48:38;;;;;;;31.93;22.50;;;13.50;98.40;;;;;;4391531;32;20603;-64
2021/05/15 07:51:07;;;;;;;34.73;21.90;;;13.80;97.50;;;;;;4391511;32;20205;-64
2021/05/15 07:53:35;;;;;;;32.20;21.90;;;13.90;96.80;;;;;;4388803;32;20205;-66
2021/05/15 07:56:04;;;;;;;29.07;20.23;;;13.90;97.30;;;;;;4392270;32;20174;-67
2021/05/15 07:58:33;;;;;;;30.00;21.17;;;14.00;97.60;;;;;;4390887;32;20258;-65
2021/05/15 08:01:00;;;;;;;29.93;21.23;;;14.30;97.40;;;;;;4389043;32;20214;-65
2021/05/15 08:03:27;;;;;;;28.47;20.30;;;14.50;95.80;;;;;;4384306;32;20174;-65
2021/05/15 08:05:54;;;;;;;27.40;18.57;;;15.30;94.20;;;;;;4387141;32;20535;-65
2021/05/15 08:08:31;;;;;;;26.90;18.97;;;16.30;92.70;;;;;;4391521;32;20227;-65
2021/05/15 08:13:58;;;;;;;15.03;10.77;;;17.10;84.10;;;;;;4382345;32;20167;-64
2021/05/15 08:16:24;;;;;;;13.70;10.23;;;16.90;83.80;;;;;;4390801;32;20160;-64
2021/05/15 08:18:52;;;;;;;18.47;11.70;;;16.90;82.60;;;;;;4390596;32;20227;-64
2021/05/15 08:21:28;;;;;;;17.20;13.10;;;18.90;79.10;;;;;;4566166;27;20259;-64
2021/05/15 08:23:58;;;;;;;17.33;13.20;;;20.10;71.40;;;;;;4392066;32;20151;-65
2021/05/15 08:26:26;;;;;;;21.20;14.73;;;20.50;69.70;;;;;;4391494;32;20152;-64
2021/05/15 08:28:53;;;;;;;18.03;14.37;;;19.60;70.90;;;;;;4391112;32;20203;-65
2021/05/15 08:31:21;;;;;;;18.73;13.57;;;19.60;74.20;;;;;;4390599;32;20172;-65
2021/05/15 08:33:50;;;;;;;16.90;12.80;;;20.60;73.40;;;;;;4390080;32;20260;-65
2021/05/15 08:36:20;;;;;;;20.60;14.60;;;21.70;67.90;;;;;;4391370;32;20481;-66
2021/05/15 08:38:48;;;;;;;18.20;14.40;;;26.80;58.80;;;;;;4391000;32;20182;-65
2021/05/15 08:41:15;;;;;;;19.23;13.37;;;28.30;49.50;;;;;;4390950;32;20156;-65
2021/05/15 08:43:43;;;;;;;22.27;16.80;;;28.30;45.80;;;;;;4390439;32;20203;-65
2021/05/15 08:46:12;;;;;;;19.93;15.57;;;25.50;48.70;;;;;;4390507;32;20160;-65
2021/05/15 08:48:41;;;;;;;20.93;17.37;;;22.80;56.30;;;;;;4390179;32;20155;-66
2021/05/15 08:51:10;;;;;;;25.23;19.13;;;20.60;63.80;;;;;;4376138;32;20230;-66
2021/05/15 08:53:38;;;;;;;25.30;19.00;;;19.40;69.50;;;;;;4380125;32;20155;-65
2021/05/15 08:56:08;;;;;;;26.37;19.03;;;19.10;70.70;;;;;;4390772;32;20511;-66
2021/05/15 08:58:36;;;;;;;29.40;20.53;;;18.70;73.40;;;;;;4388355;32;20219;-64
2021/05/15 09:01:03;;;;;;;26.13;19.27;;;18.10;75.30;;;;;;4390443;32;20178;-65
2021/05/15 09:03:29;;;;;;;29.97;20.07;;;17.60;77.80;;;;;;4386911;32;20156;-64
2021/05/15 09:05:58;;;;;;;30.03;20.20;;;17.10;80.70;;;;;;4384234;32;20156;-63
2021/05/15 09:08:27;;;;;;;27.13;18.93;;;16.50;83.50;;;;;;4383354;32;20206;-64
2021/05/15 09:10:54;;;;;;;27.73;19.40;;;16.00;84.50;;;;;;4381446;32;20171;-66
2021/05/15 09:13:23;;;;;;;26.23;19.07;;;15.90;85.90;;;;;;4382909;32;20164;-65
2021/05/15 09:15:51;;;;;;;26.10;17.83;;;15.70;85.70;;;;;;4386647;32;20209;-64
2021/05/15 09:18:21;;;;;;;24.00;16.83;;;15.70;85.50;;;;;;4383090;32;20195;-66
2021/05/15 09:20:49;;;;;;;19.67;14.83;;;15.90;85.90;;;;;;4384654;32;20590;-66
2021/05/15 09:23:19;;;;;;;21.70;16.07;;;16.30;85.00;;;;;;4385766;32;20182;-64
2021/05/15 09:25:58;;;;;;;21.53;15.50;;;18.50;78.40;;;;;;4380896;32;20175;-63
2021/05/15 09:28:43;;;;;;;25.73;16.87;;;20.20;73.80;;;;;;4386570;32;20160;-64
2021/05/15 09:31:11;;;;;;;22.37;16.87;;;20.80;70.20;;;;;;4390039;32;20227;-65
2021/05/15 09:33:37;;;;;;;24.33;16.83;;;20.10;72.70;;;;;;4390488;32;20214;-65
2021/05/15 09:36:14;;;;;;;21.00;16.30;;;19.30;73.80;;;;;;4389186;32;20651;-65
2021/05/15 09:38:42;;;;;;;24.07;16.77;;;19.40;74.40;;;;;;4390901;32;20205;-64
2021/05/15 09:41:10;;;;;;;22.60;17.23;;;20.10;73.00;;;;;;4391054;32;20156;-62
2021/05/15 09:43:37;;;;;;;20.03;14.93;;;19.50;72.50;;;;;;4391269;32;20170;-66
2021/05/15 09:46:04;;;;;;;19.33;15.47;;;18.90;73.70;;;;;;4389838;32;20492;-65
2021/05/15 09:48:37;;;;;;;23.87;16.53;;;18.40;74.60;;;;;;4390610;32;20156;-64
2021/05/15 09:51:15;;;;;;;20.27;15.30;;;17.80;76.30;;;;;;4389585;32;20198;-63
2021/05/15 09:53:44;;;;;;;20.23;15.70;;;17.30;79.40;;;;;;4390099;32;20155;-65
2021/05/15 09:56:10;;;;;;;24.57;17.00;;;16.70;81.80;;;;;;4389828;32;20194;-64
2021/05/15 09:58:37;;;;;;;23.53;16.13;;;16.70;82.90;;;;;;4390276;32;20211;-63
2021/05/15 10:01:04;;;;;;;21.30;16.20;;;16.60;81.90;;;;;;4391142;32;20202;-65
2021/05/15 10:03:32;;;;;;;19.87;15.53;;;16.80;83.70;;;;;;4389392;32;20179;-64
2021/05/15 10:06:03;;;;;;;18.20;13.80;;;17.40;83.20;;;;;;4383014;32;20151;-64
2021/05/15 10:08:31;;;;;;;21.57;15.63;;;18.30;79.20;;;;;;4390536;32;20548;-63
2021/05/15 10:11:03;;;;;;;16.30;12.97;;;19.00;74.30;;;;;;4390054;32;20176;-65
2021/05/15 10:13:30;;;;;;;16.90;12.77;;;19.50;73.80;;;;;;4390798;32;20159;-64
2021/05/15 10:15:56;;;;;;;22.23;15.90;;;19.90;72.20;;;;;;4389293;32;20208;-63
2021/05/15 10:18:23;;;;;;;20.60;15.27;;;19.20;71.80;;;;;;4389544;32;20246;-64
2021/05/15 10:20:49;;;;;;;21.03;15.27;;;18.60;72.70;;;;;;4390405;32;20148;-64
2021/05/15 10:23:18;;;;;;;21.63;16.03;;;18.20;75.30;;;;;;4383870;32;20675;-66
2021/05/15 10:25:46;;;;;;;23.03;16.70;;;17.60;76.60;;;;;;4382960;32;20238;-65
2021/05/15 10:28:24;;;;;;;25.00;18.40;;;17.70;78.00;;;;;;4384127;32;20271;-63
2021/05/15 10:31:01;;;;;;;24.07;17.23;;;18.20;77.60;;;;;;4378361;32;20219;-65
2021/05/15 10:33:30;;;;;;;20.83;16.97;;;19.20;74.40;;;;;;4380911;32;20210;-62
2021/05/15 10:35:56;;;;;;;22.53;17.93;;;19.80;71.70;;;;;;4381591;32;20261;-65
2021/05/15 10:38:31;;;;;;;23.37;17.60;;;20.00;68.70;;;;;;4382961;32;20215;-63
2021/05/15 10:41:12;;;;;;;25.20;19.47;;;19.80;70.20;;;;;;4380870;32;20644;-64
2021/05/15 10:43:42;;;;;;;23.47;18.23;;;20.20;70.70;;;;;;4379226;32;20251;-64
2021/05/15 10:46:20;;;;;;;26.40;18.27;;;20.60;67.80;;;;;;4385684;32;20203;-64
2021/05/15 10:48:58;;;;;;;24.03;18.40;;;20.60;67.00;;;;;;4378032;32;20156;-65
2021/05/15 10:51:42;;;;;;;26.00;19.03;;;20.40;68.90;;;;;;4384478;32;20549;-65
2021/05/15 10:54:10;;;;;;;24.47;18.90;;;19.40;69.90;;;;;;4384640;32;20215;-65
2021/05/15 10:56:36;;;;;;;27.87;22.50;;;18.80;71.90;;;;;;4385232;32;20438;-66
2021/05/15 10:59:09;;;;;;;28.00;21.33;;;18.80;72.20;;;;;;4384475;32;20251;-64
2021/05/15 11:01:50;;;;;;;27.63;21.33;;;18.50;73.50;;;;;;4385929;32;20175;-65
2021/05/15 11:04:18;;;;;;;26.90;21.60;;;18.10;74.20;;;;;;4383802;32;20468;-64
2021/05/15 11:06:56;;;;;;;31.63;23.30;;;18.30;75.80;;;;;;4379955;32;20200;-63
2021/05/15 11:09:24;;;;;;;30.50;24.87;;;18.80;73.80;;;;;;4380010;32;20176;-63
2021/05/15 11:11:50;;;;;;;35.80;25.87;;;19.00;71.80;;;;;;4392267;32;20144;-63
2021/05/15 11:14:31;;;;;;;32.00;25.20;;;18.90;71.60;;;;;;4392453;32;20171;-64
2021/05/15 11:17:24;;;;;;;31.50;25.50;;;18.40;73.90;;;;;;4391798;32;20207;-64
2021/05/15 11:19:52;;;;;;;30.43;25.43;;;18.40;74.90;;;;;;4379140;32;20577;-62
2021/05/15 11:22:19;;;;;;;29.43;24.93;;;18.80;75.00;;;;;;4386981;32;20164;-63
2021/05/15 11:24:54;;;;;;;29.67;24.10;;;19.40;72.90;;;;;;4388521;32;20223;-62
2021/05/15 11:27:22;;;;;;;33.93;26.43;;;20.00;71.80;;;;;;4386325;32;20170;-63
2021/05/15 11:30:08;;;;;;;32.57;25.27;;;20.10;69.70;;;;;;4376980;32;20168;-63
2021/05/15 11:32:34;;;;;;;29.57;24.13;;;20.10;70.10;;;;;;4378960;32;20156;-63
2021/05/15 11:35:03;;;;;;;31.27;25.03;;;20.20;69.60;;;;;;4382722;32;20222;-63
2021/05/15 11:37:30;;;;;;;32.73;24.87;;;19.90;70.10;;;;;;4386424;32;20171;-64
2021/05/15 11:39:57;;;;;;;31.27;25.00;;;19.60;70.90;;;;;;4390718;32;20174;-64
2021/05/15 11:42:27;;;;;;;28.23;23.53;;;19.20;72.00;;;;;;4392193;32;20204;-63
2021/05/15 11:44:55;;;;;;;30.63;24.60;;;18.40;74.50;;;;;;4392715;32;20171;-63
2021/05/15 11:47:23;;;;;;;32.93;26.10;;;17.80;77.70;;;;;;4391364;32;20160;-63
2021/05/15 11:49:57;;;;;;;30.93;24.10;;;17.30;79.20;;;;;;4390716;32;20194;-62
2021/05/15 11:52:31;;;;;;;31.47;26.27;;;16.80;81.70;;;;;;4391262;32;20174;-65
2021/05/15 11:54:58;;;;;;;33.00;25.70;;;16.20;84.10;;;;;;4390567;32;20178;-63
2021/05/15 11:57:28;;;;;;;31.73;25.20;;;15.80;86.50;;;;;;4391271;32;20145;-63
2021/05/15 12:00:08;;;;;;;33.00;26.97;;;15.40;88.80;;;;;;4390705;32;20160;-62
2021/05/15 12:02:34;;;;;;;37.00;29.40;;;14.90;91.20;;;;;;4389226;32;20171;-63
2021/05/15 12:05:00;;;;;;;37.00;29.73;;;14.30;94.40;;;;;;4391437;32;20155;-62
2021/05/15 12:07:27;;;;;;;42.10;31.73;;;13.90;95.90;;;;;;4387404;32;20149;-64
2021/05/15 12:09:53;;;;;;;42.83;32.63;;;13.60;97.00;;;;;;4389756;32;20180;-65
2021/05/15 12:12:20;;;;;;;52.47;36.27;;;13.40;99.60;;;;;;4391036;32;20160;-66
2021/05/15 12:15:06;;;;;;;44.93;34.70;;;13.30;99.90;;;;;;4385321;32;20170;-63
2021/05/15 12:17:36;;;;;;;50.47;37.90;;;13.40;99.90;;;;;;4391179;32;20215;-65
2021/05/15 12:20:07;;;;;;;54.53;37.97;;;13.40;99.90;;;;;;4389450;32;20710;-65
2021/05/15 12:22:36;;;;;;;49.77;35.13;;;13.40;99.90;;;;;;4386374;32;20182;-65
2021/05/15 12:25:10;;;;;;;51.33;36.87;;;13.40;99.90;;;;;;4390529;32;20155;-63
2021/05/15 12:27:39;;;;;;;56.97;39.47;;;13.40;99.90;;;;;;4388290;32;20156;-63
2021/05/15 12:30:17;;;;;;;48.07;35.60;;;13.50;99.90;;;;;;4385114;32;20206;-64
2021/05/15 12:32:46;;;;;;;52.63;36.57;;;13.50;99.90;;;;;;4390824;32;20170;-63
2021/05/15 12:35:12;;;;;;;45.00;34.40;;;13.70;99.90;;;;;;4386846;32;20194;-64
2021/05/15 12:37:42;;;;;;;48.13;36.10;;;14.00;99.90;;;;;;4383914;32;20161;-65